sensor_id;sensor_type;location;lat;lon;timestamp;P1;durP1;ratioP1;P2;durP2;ratioP2
819;SDS011;392;48.838;2.322;2022-12-17T00:01:18;35.47;;;25.60;;
819;SDS011;392;48.838;2.322;2022-12-17T00:04:03;35.83;;;25.15;;
819;SDS011;392;48.838;2.322;2022-12-17T00:06:49;33.85;;;25.15;;
819;SDS011;392;48.838;2.322;2022-12-17T00:09:34;31.90;;;24.48;;
819;SDS011;392;48.838;2.322;2022-12-17T00:12:19;32.67;;;23.38;;
819;SDS011;392;48.838;2.322;2022-12-17T00:15:00;32.38;;;24.13;;
819;SDS011;392;48.838;2.322;2022-12-17T00:17:45;29.80;;;22.23;;
819;SDS011;392;48.838;2.322;2022-12-17T00:20:29;34.40;;;24.83;;
819;SDS011;392;48.838;2.322;2022-12-17T00:23:16;34.88;;;24.42;;
819;SDS011;392;48.838;2.322;2022-12-17T00:26:00;35.80;;;23.85;;
819;SDS011;392;48.838;2.322;2022-12-17T00:28:45;33.28;;;23.55;;
819;SDS011;392;48.838;2.322;2022-12-17T00:31:30;34.45;;;24.35;;
819;SDS011;392;48.838;2.322;2022-12-17T00:34:15;36.22;;;25.05;;
819;SDS011;392;48.838;2.322;2022-12-17T00:37:00;34.60;;;24.50;;
819;SDS011;392;48.838;2.322;2022-12-17T00:39:46;34.35;;;24.90;;
819;SDS011;392;48.838;2.322;2022-12-17T00:42:31;36.15;;;24.95;;
819;SDS011;392;48.838;2.322;2022-12-17T00:45:16;32.95;;;23.90;;
819;SDS011;392;48.838;2.322;2022-12-17T00:48:01;32.47;;;23.05;;
819;SDS011;392;48.838;2.322;2022-12-17T00:50:51;29.52;;;22.48;;
819;SDS011;392;48.838;2.322;2022-12-17T00:53:38;32.15;;;24.00;;
819;SDS011;392;48.838;2.322;2022-12-17T00:56:25;32.38;;;23.20;;
819;SDS011;392;48.838;2.322;2022-12-17T00:59:06;29.45;;;21.90;;
819;SDS011;392;48.838;2.322;2022-12-17T01:01:51;35.17;;;24.88;;
819;SDS011;392;48.838;2.322;2022-12-17T01:04:43;34.53;;;23.67;;
819;SDS011;392;48.838;2.322;2022-12-17T01:07:27;32.70;;;23.80;;
819;SDS011;392;48.838;2.322;2022-12-17T01:10:12;36.72;;;25.70;;
819;SDS011;392;48.838;2.322;2022-12-17T01:12:59;35.85;;;25.80;;
819;SDS011;392;48.838;2.322;2022-12-17T01:15:43;34.55;;;26.33;;
819;SDS011;392;48.838;2.322;2022-12-17T01:18:28;37.28;;;26.40;;
819;SDS011;392;48.838;2.322;2022-12-17T01:21:13;36.42;;;26.80;;
819;SDS011;392;48.838;2.322;2022-12-17T01:23:59;37.22;;;24.90;;
819;SDS011;392;48.838;2.322;2022-12-17T01:26:44;36.47;;;26.83;;
819;SDS011;392;48.838;2.322;2022-12-17T01:29:30;36.45;;;26.48;;
819;SDS011;392;48.838;2.322;2022-12-17T01:32:16;38.35;;;26.75;;
819;SDS011;392;48.838;2.322;2022-12-17T01:35:02;35.47;;;25.63;;
819;SDS011;392;48.838;2.322;2022-12-17T01:37:47;36.60;;;26.20;;
819;SDS011;392;48.838;2.322;2022-12-17T01:40:32;33.40;;;25.20;;
819;SDS011;392;48.838;2.322;2022-12-17T01:43:29;35.05;;;25.05;;
819;SDS011;392;48.838;2.322;2022-12-17T01:46:19;35.25;;;24.73;;
819;SDS011;392;48.838;2.322;2022-12-17T01:49:05;34.47;;;25.13;;
819;SDS011;392;48.838;2.322;2022-12-17T01:51:52;34.55;;;25.10;;
819;SDS011;392;48.838;2.322;2022-12-17T01:54:37;35.78;;;25.80;;
819;SDS011;392;48.838;2.322;2022-12-17T01:57:23;36.67;;;25.92;;
819;SDS011;392;48.838;2.322;2022-12-17T02:00:10;38.33;;;26.52;;
819;SDS011;392;48.838;2.322;2022-12-17T02:03:01;34.53;;;25.60;;
819;SDS011;392;48.838;2.322;2022-12-17T02:05:49;35.88;;;26.40;;
819;SDS011;392;48.838;2.322;2022-12-17T02:08:43;34.22;;;25.25;;
819;SDS011;392;48.838;2.322;2022-12-17T02:11:38;37.80;;;26.33;;
819;SDS011;392;48.838;2.322;2022-12-17T02:14:30;36.40;;;27.02;;
819;SDS011;392;48.838;2.322;2022-12-17T02:17:22;35.97;;;25.83;;
819;SDS011;392;48.838;2.322;2022-12-17T02:20:18;37.95;;;25.10;;
819;SDS011;392;48.838;2.322;2022-12-17T02:23:12;36.97;;;26.05;;
819;SDS011;392;48.838;2.322;2022-12-17T02:26:10;37.75;;;26.33;;
819;SDS011;392;48.838;2.322;2022-12-17T02:29:01;34.75;;;24.73;;
819;SDS011;392;48.838;2.322;2022-12-17T02:31:49;33.75;;;24.77;;
819;SDS011;392;48.838;2.322;2022-12-17T02:34:43;34.35;;;25.10;;
819;SDS011;392;48.838;2.322;2022-12-17T02:37:30;35.42;;;25.23;;
819;SDS011;392;48.838;2.322;2022-12-17T02:40:15;34.55;;;25.67;;
819;SDS011;392;48.838;2.322;2022-12-17T02:43:02;35.08;;;27.00;;
819;SDS011;392;48.838;2.322;2022-12-17T02:45:49;33.13;;;25.90;;
819;SDS011;392;48.838;2.322;2022-12-17T02:48:37;36.30;;;26.50;;
819;SDS011;392;48.838;2.322;2022-12-17T02:51:22;34.00;;;24.55;;
819;SDS011;392;48.838;2.322;2022-12-17T02:54:08;37.38;;;28.08;;
819;SDS011;392;48.838;2.322;2022-12-17T02:56:53;32.38;;;23.88;;
819;SDS011;392;48.838;2.322;2022-12-17T02:59:38;32.30;;;23.52;;
819;SDS011;392;48.838;2.322;2022-12-17T03:02:25;31.77;;;22.98;;
819;SDS011;392;48.838;2.322;2022-12-17T03:05:10;31.75;;;23.35;;
819;SDS011;392;48.838;2.322;2022-12-17T03:07:54;31.80;;;23.75;;
819;SDS011;392;48.838;2.322;2022-12-17T03:10:40;30.90;;;22.80;;
819;SDS011;392;48.838;2.322;2022-12-17T03:13:25;34.33;;;24.23;;
819;SDS011;392;48.838;2.322;2022-12-17T03:16:12;31.33;;;23.67;;
819;SDS011;392;48.838;2.322;2022-12-17T03:19:00;30.23;;;22.65;;
819;SDS011;392;48.838;2.322;2022-12-17T03:21:45;33.90;;;24.30;;
819;SDS011;392;48.838;2.322;2022-12-17T03:24:30;32.22;;;23.98;;
819;SDS011;392;48.838;2.322;2022-12-17T03:27:15;30.33;;;22.08;;
819;SDS011;392;48.838;2.322;2022-12-17T03:29:59;32.38;;;23.27;;
819;SDS011;392;48.838;2.322;2022-12-17T03:32:44;30.55;;;21.20;;
819;SDS011;392;48.838;2.322;2022-12-17T03:35:30;30.38;;;22.08;;
819;SDS011;392;48.838;2.322;2022-12-17T03:38:15;31.52;;;24.05;;
819;SDS011;392;48.838;2.322;2022-12-17T03:41:00;29.73;;;22.63;;
819;SDS011;392;48.838;2.322;2022-12-17T03:43:45;32.67;;;24.25;;
819;SDS011;392;48.838;2.322;2022-12-17T03:46:31;29.90;;;23.00;;
819;SDS011;392;48.838;2.322;2022-12-17T03:49:12;30.88;;;22.33;;
819;SDS011;392;48.838;2.322;2022-12-17T03:51:58;33.33;;;24.60;;
819;SDS011;392;48.838;2.322;2022-12-17T03:54:43;31.45;;;22.42;;
819;SDS011;392;48.838;2.322;2022-12-17T03:57:27;28.60;;;23.08;;
819;SDS011;392;48.838;2.322;2022-12-17T04:00:12;38.47;;;25.02;;
819;SDS011;392;48.838;2.322;2022-12-17T04:02:57;31.48;;;23.17;;
819;SDS011;392;48.838;2.322;2022-12-17T04:05:42;30.27;;;22.60;;
819;SDS011;392;48.838;2.322;2022-12-17T04:08:28;28.60;;;20.77;;
819;SDS011;392;48.838;2.322;2022-12-17T04:11:13;30.15;;;21.65;;
819;SDS011;392;48.838;2.322;2022-12-17T04:13:58;30.48;;;22.65;;
819;SDS011;392;48.838;2.322;2022-12-17T04:16:43;31.20;;;22.08;;
819;SDS011;392;48.838;2.322;2022-12-17T04:19:43;32.78;;;23.38;;
819;SDS011;392;48.838;2.322;2022-12-17T04:22:28;31.48;;;23.52;;
819;SDS011;392;48.838;2.322;2022-12-17T04:25:14;31.02;;;22.83;;
819;SDS011;392;48.838;2.322;2022-12-17T04:27:59;30.13;;;23.20;;
819;SDS011;392;48.838;2.322;2022-12-17T04:30:44;32.60;;;23.40;;
819;SDS011;392;48.838;2.322;2022-12-17T04:33:29;33.90;;;24.50;;
819;SDS011;392;48.838;2.322;2022-12-17T04:36:14;31.85;;;23.58;;
819;SDS011;392;48.838;2.322;2022-12-17T04:38:58;31.27;;;24.10;;
819;SDS011;392;48.838;2.322;2022-12-17T04:41:45;32.72;;;24.10;;
819;SDS011;392;48.838;2.322;2022-12-17T04:44:30;30.35;;;22.77;;
819;SDS011;392;48.838;2.322;2022-12-17T04:47:14;31.08;;;23.50;;
819;SDS011;392;48.838;2.322;2022-12-17T04:49:59;31.05;;;24.05;;
819;SDS011;392;48.838;2.322;2022-12-17T04:52:44;31.92;;;23.85;;
819;SDS011;392;48.838;2.322;2022-12-17T04:55:29;34.22;;;24.95;;
819;SDS011;392;48.838;2.322;2022-12-17T04:58:15;29.10;;;23.50;;
819;SDS011;392;48.838;2.322;2022-12-17T05:01:00;33.28;;;25.38;;
819;SDS011;392;48.838;2.322;2022-12-17T05:03:45;29.15;;;23.45;;
819;SDS011;392;48.838;2.322;2022-12-17T05:06:30;32.55;;;25.15;;
819;SDS011;392;48.838;2.322;2022-12-17T05:09:15;31.25;;;23.52;;
819;SDS011;392;48.838;2.322;2022-12-17T05:11:59;31.42;;;24.50;;
819;SDS011;392;48.838;2.322;2022-12-17T05:14:45;30.98;;;23.88;;
819;SDS011;392;48.838;2.322;2022-12-17T05:17:31;30.77;;;23.70;;
819;SDS011;392;48.838;2.322;2022-12-17T05:20:16;32.83;;;23.52;;
819;SDS011;392;48.838;2.322;2022-12-17T05:23:03;30.70;;;23.90;;
819;SDS011;392;48.838;2.322;2022-12-17T05:25:55;33.58;;;25.25;;
819;SDS011;392;48.838;2.322;2022-12-17T05:28:47;31.13;;;23.90;;
819;SDS011;392;48.838;2.322;2022-12-17T05:31:34;32.33;;;24.80;;
819;SDS011;392;48.838;2.322;2022-12-17T05:34:18;31.70;;;24.10;;
819;SDS011;392;48.838;2.322;2022-12-17T05:37:03;30.17;;;23.42;;
819;SDS011;392;48.838;2.322;2022-12-17T05:39:48;30.80;;;23.92;;
819;SDS011;392;48.838;2.322;2022-12-17T05:42:33;31.08;;;23.67;;
819;SDS011;392;48.838;2.322;2022-12-17T05:45:18;29.55;;;22.98;;
819;SDS011;392;48.838;2.322;2022-12-17T05:48:05;33.13;;;26.05;;
819;SDS011;392;48.838;2.322;2022-12-17T05:50:49;31.30;;;24.15;;
819;SDS011;392;48.838;2.322;2022-12-17T05:53:34;35.38;;;27.02;;
819;SDS011;392;48.838;2.322;2022-12-17T05:56:20;34.53;;;25.35;;
819;SDS011;392;48.838;2.322;2022-12-17T05:59:04;32.90;;;25.33;;
819;SDS011;392;48.838;2.322;2022-12-17T06:01:50;36.08;;;26.55;;
819;SDS011;392;48.838;2.322;2022-12-17T06:04:36;32.20;;;24.50;;
819;SDS011;392;48.838;2.322;2022-12-17T06:07:21;30.80;;;22.50;;
819;SDS011;392;48.838;2.322;2022-12-17T06:10:06;32.92;;;25.73;;
819;SDS011;392;48.838;2.322;2022-12-17T06:12:54;30.50;;;23.98;;
819;SDS011;392;48.838;2.322;2022-12-17T06:15:39;33.78;;;25.90;;
819;SDS011;392;48.838;2.322;2022-12-17T06:18:24;36.17;;;26.42;;
819;SDS011;392;48.838;2.322;2022-12-17T06:21:11;34.22;;;25.88;;
819;SDS011;392;48.838;2.322;2022-12-17T06:23:56;30.30;;;24.20;;
819;SDS011;392;48.838;2.322;2022-12-17T06:26:41;32.30;;;26.05;;
819;SDS011;392;48.838;2.322;2022-12-17T06:29:28;31.85;;;25.40;;
819;SDS011;392;48.838;2.322;2022-12-17T06:32:13;35.10;;;26.17;;
819;SDS011;392;48.838;2.322;2022-12-17T06:34:57;35.35;;;27.13;;
819;SDS011;392;48.838;2.322;2022-12-17T06:37:44;35.67;;;27.40;;
819;SDS011;392;48.838;2.322;2022-12-17T06:40:29;36.67;;;27.60;;
819;SDS011;392;48.838;2.322;2022-12-17T06:43:14;35.50;;;25.50;;
819;SDS011;392;48.838;2.322;2022-12-17T06:46:07;33.50;;;26.58;;
819;SDS011;392;48.838;2.322;2022-12-17T06:48:52;37.45;;;27.63;;
819;SDS011;392;48.838;2.322;2022-12-17T06:51:37;36.10;;;27.50;;
819;SDS011;392;48.838;2.322;2022-12-17T06:54:23;33.65;;;24.25;;
819;SDS011;392;48.838;2.322;2022-12-17T06:57:08;35.60;;;26.27;;
819;SDS011;392;48.838;2.322;2022-12-17T06:59:53;34.05;;;25.73;;
819;SDS011;392;48.838;2.322;2022-12-17T07:02:37;35.75;;;26.10;;
819;SDS011;392;48.838;2.322;2022-12-17T07:05:22;32.30;;;25.33;;
819;SDS011;392;48.838;2.322;2022-12-17T07:08:07;36.92;;;27.08;;
819;SDS011;392;48.838;2.322;2022-12-17T07:10:53;35.50;;;26.60;;
819;SDS011;392;48.838;2.322;2022-12-17T07:13:38;35.65;;;26.10;;
819;SDS011;392;48.838;2.322;2022-12-17T07:16:22;36.17;;;26.23;;
819;SDS011;392;48.838;2.322;2022-12-17T07:19:07;35.63;;;26.90;;
819;SDS011;392;48.838;2.322;2022-12-17T07:21:52;34.80;;;27.17;;
819;SDS011;392;48.838;2.322;2022-12-17T07:24:37;36.85;;;26.65;;
819;SDS011;392;48.838;2.322;2022-12-17T07:27:23;34.95;;;27.33;;
819;SDS011;392;48.838;2.322;2022-12-17T07:30:08;39.38;;;28.88;;
819;SDS011;392;48.838;2.322;2022-12-17T07:32:58;35.05;;;26.73;;
819;SDS011;392;48.838;2.322;2022-12-17T07:35:44;38.08;;;27.52;;
819;SDS011;392;48.838;2.322;2022-12-17T07:38:29;35.45;;;26.70;;
819;SDS011;392;48.838;2.322;2022-12-17T07:41:14;34.92;;;27.58;;
819;SDS011;392;48.838;2.322;2022-12-17T07:44:00;38.00;;;28.25;;
819;SDS011;392;48.838;2.322;2022-12-17T07:46:45;39.88;;;29.60;;
819;SDS011;392;48.838;2.322;2022-12-17T07:49:30;37.58;;;29.17;;
819;SDS011;392;48.838;2.322;2022-12-17T07:52:15;37.70;;;29.75;;
819;SDS011;392;48.838;2.322;2022-12-17T07:55:00;39.65;;;29.25;;
819;SDS011;392;48.838;2.322;2022-12-17T07:57:44;39.15;;;28.13;;
819;SDS011;392;48.838;2.322;2022-12-17T08:00:33;45.40;;;33.72;;
819;SDS011;392;48.838;2.322;2022-12-17T08:03:18;40.97;;;31.40;;
819;SDS011;392;48.838;2.322;2022-12-17T08:06:02;40.58;;;29.52;;
819;SDS011;392;48.838;2.322;2022-12-17T08:08:48;36.35;;;26.70;;
819;SDS011;392;48.838;2.322;2022-12-17T08:11:33;31.50;;;25.05;;
819;SDS011;392;48.838;2.322;2022-12-17T08:14:18;36.25;;;27.00;;
819;SDS011;392;48.838;2.322;2022-12-17T08:17:03;39.33;;;30.48;;
819;SDS011;392;48.838;2.322;2022-12-17T08:19:48;41.38;;;30.95;;
819;SDS011;392;48.838;2.322;2022-12-17T08:22:34;38.00;;;28.92;;
819;SDS011;392;48.838;2.322;2022-12-17T08:25:18;38.22;;;29.33;;
819;SDS011;392;48.838;2.322;2022-12-17T08:28:03;40.05;;;29.15;;
819;SDS011;392;48.838;2.322;2022-12-17T08:30:48;41.53;;;30.10;;
819;SDS011;392;48.838;2.322;2022-12-17T08:33:35;36.92;;;27.77;;
819;SDS011;392;48.838;2.322;2022-12-17T08:36:34;35.90;;;26.85;;
819;SDS011;392;48.838;2.322;2022-12-17T08:39:19;32.20;;;25.27;;
819;SDS011;392;48.838;2.322;2022-12-17T08:42:04;39.53;;;26.67;;
819;SDS011;392;48.838;2.322;2022-12-17T08:44:49;36.67;;;26.80;;
819;SDS011;392;48.838;2.322;2022-12-17T08:47:34;36.70;;;27.02;;
819;SDS011;392;48.838;2.322;2022-12-17T08:50:20;35.25;;;26.38;;
819;SDS011;392;48.838;2.322;2022-12-17T08:53:05;38.10;;;27.27;;
819;SDS011;392;48.838;2.322;2022-12-17T08:55:50;36.22;;;26.10;;
819;SDS011;392;48.838;2.322;2022-12-17T08:58:35;35.72;;;27.67;;
819;SDS011;392;48.838;2.322;2022-12-17T09:01:20;35.85;;;26.30;;
819;SDS011;392;48.838;2.322;2022-12-17T09:04:04;35.78;;;27.00;;
819;SDS011;392;48.838;2.322;2022-12-17T09:06:53;38.22;;;26.92;;
819;SDS011;392;48.838;2.322;2022-12-17T09:09:38;36.85;;;27.80;;
819;SDS011;392;48.838;2.322;2022-12-17T09:12:24;37.70;;;28.38;;
819;SDS011;392;48.838;2.322;2022-12-17T09:15:14;35.75;;;27.25;;
819;SDS011;392;48.838;2.322;2022-12-17T09:17:59;36.53;;;27.80;;
819;SDS011;392;48.838;2.322;2022-12-17T09:20:49;34.05;;;27.08;;
819;SDS011;392;48.838;2.322;2022-12-17T09:23:37;37.55;;;28.30;;
819;SDS011;392;48.838;2.322;2022-12-17T09:26:22;41.63;;;30.33;;
819;SDS011;392;48.838;2.322;2022-12-17T09:29:08;39.90;;;30.20;;
819;SDS011;392;48.838;2.322;2022-12-17T09:31:53;39.13;;;29.38;;
819;SDS011;392;48.838;2.322;2022-12-17T09:34:38;38.55;;;29.40;;
819;SDS011;392;48.838;2.322;2022-12-17T09:37:23;38.00;;;29.35;;
819;SDS011;392;48.838;2.322;2022-12-17T09:40:10;36.80;;;29.10;;
819;SDS011;392;48.838;2.322;2022-12-17T09:43:04;36.53;;;28.35;;
819;SDS011;392;48.838;2.322;2022-12-17T09:46:06;35.65;;;27.20;;
819;SDS011;392;48.838;2.322;2022-12-17T09:49:00;39.97;;;28.77;;
819;SDS011;392;48.838;2.322;2022-12-17T09:51:47;33.78;;;27.17;;
819;SDS011;392;48.838;2.322;2022-12-17T09:54:33;37.92;;;27.58;;
819;SDS011;392;48.838;2.322;2022-12-17T09:57:24;37.15;;;27.45;;
819;SDS011;392;48.838;2.322;2022-12-17T10:00:13;39.30;;;27.88;;
819;SDS011;392;48.838;2.322;2022-12-17T10:03:00;36.97;;;25.50;;
819;SDS011;392;48.838;2.322;2022-12-17T10:05:46;35.00;;;25.92;;
819;SDS011;392;48.838;2.322;2022-12-17T10:08:32;35.25;;;26.13;;
819;SDS011;392;48.838;2.322;2022-12-17T10:11:18;35.70;;;27.25;;
819;SDS011;392;48.838;2.322;2022-12-17T10:14:10;34.60;;;26.33;;
819;SDS011;392;48.838;2.322;2022-12-17T10:16:59;34.45;;;26.40;;
819;SDS011;392;48.838;2.322;2022-12-17T10:19:48;35.75;;;27.83;;
819;SDS011;392;48.838;2.322;2022-12-17T10:22:43;36.63;;;27.58;;
819;SDS011;392;48.838;2.322;2022-12-17T10:25:30;36.67;;;28.40;;
819;SDS011;392;48.838;2.322;2022-12-17T10:28:17;32.70;;;24.63;;
819;SDS011;392;48.838;2.322;2022-12-17T10:31:08;33.45;;;25.15;;
819;SDS011;392;48.838;2.322;2022-12-17T10:33:59;37.90;;;26.95;;
819;SDS011;392;48.838;2.322;2022-12-17T10:36:44;33.88;;;25.10;;
819;SDS011;392;48.838;2.322;2022-12-17T10:39:31;36.53;;;26.50;;
819;SDS011;392;48.838;2.322;2022-12-17T10:42:20;35.78;;;25.75;;
819;SDS011;392;48.838;2.322;2022-12-17T10:45:17;36.28;;;27.17;;
819;SDS011;392;48.838;2.322;2022-12-17T10:48:16;34.15;;;26.10;;
819;SDS011;392;48.838;2.322;2022-12-17T10:51:04;41.35;;;29.10;;
819;SDS011;392;48.838;2.322;2022-12-17T10:54:03;39.10;;;28.33;;
819;SDS011;392;48.838;2.322;2022-12-17T10:56:57;37.90;;;28.15;;
819;SDS011;392;48.838;2.322;2022-12-17T10:59:45;39.38;;;27.70;;
819;SDS011;392;48.838;2.322;2022-12-17T11:02:45;36.28;;;27.25;;
819;SDS011;392;48.838;2.322;2022-12-17T11:05:34;33.40;;;25.13;;
819;SDS011;392;48.838;2.322;2022-12-17T11:08:19;34.60;;;25.85;;
819;SDS011;392;48.838;2.322;2022-12-17T11:11:13;33.65;;;25.92;;
819;SDS011;392;48.838;2.322;2022-12-17T11:13:59;33.88;;;26.75;;
819;SDS011;392;48.838;2.322;2022-12-17T11:16:47;32.75;;;23.92;;
819;SDS011;392;48.838;2.322;2022-12-17T11:19:37;35.25;;;25.48;;
819;SDS011;392;48.838;2.322;2022-12-17T11:22:35;35.22;;;26.30;;
819;SDS011;392;48.838;2.322;2022-12-17T11:25:28;30.70;;;23.73;;
819;SDS011;392;48.838;2.322;2022-12-17T11:28:22;33.03;;;24.98;;
819;SDS011;392;48.838;2.322;2022-12-17T11:31:17;32.42;;;23.95;;
819;SDS011;392;48.838;2.322;2022-12-17T11:34:21;36.60;;;24.75;;
819;SDS011;392;48.838;2.322;2022-12-17T11:37:13;31.98;;;25.10;;
819;SDS011;392;48.838;2.322;2022-12-17T11:40:06;34.42;;;25.35;;
819;SDS011;392;48.838;2.322;2022-12-17T11:43:09;33.00;;;25.10;;
819;SDS011;392;48.838;2.322;2022-12-17T11:46:02;34.65;;;26.00;;
819;SDS011;392;48.838;2.322;2022-12-17T11:49:01;32.05;;;25.05;;
819;SDS011;392;48.838;2.322;2022-12-17T11:51:58;33.55;;;24.63;;
819;SDS011;392;48.838;2.322;2022-12-17T11:54:51;36.08;;;26.13;;
819;SDS011;392;48.838;2.322;2022-12-17T11:57:48;36.47;;;25.20;;
819;SDS011;392;48.838;2.322;2022-12-17T12:00:41;34.10;;;25.25;;
819;SDS011;392;48.838;2.322;2022-12-17T12:03:40;28.38;;;23.48;;
819;SDS011;392;48.838;2.322;2022-12-17T12:06:36;33.50;;;25.50;;
819;SDS011;392;48.838;2.322;2022-12-17T12:09:33;32.05;;;23.85;;
819;SDS011;392;48.838;2.322;2022-12-17T12:12:35;32.67;;;23.67;;
819;SDS011;392;48.838;2.322;2022-12-17T12:15:31;33.90;;;23.15;;
819;SDS011;392;48.838;2.322;2022-12-17T12:18:28;31.20;;;22.50;;
819;SDS011;392;48.838;2.322;2022-12-17T12:21:29;34.92;;;24.95;;
819;SDS011;392;48.838;2.322;2022-12-17T12:24:39;37.03;;;25.50;;
819;SDS011;392;48.838;2.322;2022-12-17T12:27:44;31.70;;;23.30;;
819;SDS011;392;48.838;2.322;2022-12-17T12:30:39;33.08;;;23.65;;
819;SDS011;392;48.838;2.322;2022-12-17T12:33:31;31.40;;;21.20;;
819;SDS011;392;48.838;2.322;2022-12-17T12:36:29;33.53;;;22.63;;
819;SDS011;392;48.838;2.322;2022-12-17T12:39:18;34.88;;;23.48;;
819;SDS011;392;48.838;2.322;2022-12-17T12:42:12;35.03;;;24.55;;
819;SDS011;392;48.838;2.322;2022-12-17T12:45:05;31.52;;;23.02;;
819;SDS011;392;48.838;2.322;2022-12-17T12:48:26;31.65;;;20.65;;
819;SDS011;392;48.838;2.322;2022-12-17T12:51:26;33.17;;;22.67;;
819;SDS011;392;48.838;2.322;2022-12-17T12:57:35;31.35;;;20.90;;
819;SDS011;392;48.838;2.322;2022-12-17T13:00:38;29.25;;;21.50;;
819;SDS011;392;48.838;2.322;2022-12-17T13:03:37;30.63;;;21.35;;
819;SDS011;392;48.838;2.322;2022-12-17T13:06:39;31.13;;;21.10;;
819;SDS011;392;48.838;2.322;2022-12-17T13:09:18;30.25;;;21.08;;
819;SDS011;392;48.838;2.322;2022-12-17T13:12:08;29.65;;;22.13;;
819;SDS011;392;48.838;2.322;2022-12-17T13:14:49;29.20;;;21.60;;
819;SDS011;392;48.838;2.322;2022-12-17T13:17:28;33.40;;;22.15;;
819;SDS011;392;48.838;2.322;2022-12-17T13:26:13;33.03;;;22.77;;
819;SDS011;392;48.838;2.322;2022-12-17T13:28:48;29.48;;;22.23;;
819;SDS011;392;48.838;2.322;2022-12-17T13:31:44;29.48;;;20.98;;
819;SDS011;392;48.838;2.322;2022-12-17T13:34:24;31.42;;;22.55;;
819;SDS011;392;48.838;2.322;2022-12-17T13:37:00;34.85;;;23.30;;
819;SDS011;392;48.838;2.322;2022-12-17T13:39:35;33.58;;;24.08;;
819;SDS011;392;48.838;2.322;2022-12-17T13:42:18;30.85;;;23.15;;
819;SDS011;392;48.838;2.322;2022-12-17T13:44:53;30.52;;;22.42;;
819;SDS011;392;48.838;2.322;2022-12-17T13:47:22;31.13;;;22.30;;
819;SDS011;392;48.838;2.322;2022-12-17T13:49:52;37.05;;;23.45;;
819;SDS011;392;48.838;2.322;2022-12-17T13:52:24;37.85;;;23.98;;
819;SDS011;392;48.838;2.322;2022-12-17T13:54:52;32.95;;;24.95;;
819;SDS011;392;48.838;2.322;2022-12-17T13:57:31;33.85;;;22.67;;
819;SDS011;392;48.838;2.322;2022-12-17T13:59:59;34.25;;;23.33;;
819;SDS011;392;48.838;2.322;2022-12-17T14:02:28;36.35;;;23.45;;
819;SDS011;392;48.838;2.322;2022-12-17T14:04:57;31.92;;;22.65;;
819;SDS011;392;48.838;2.322;2022-12-17T14:07:28;31.80;;;22.48;;
819;SDS011;392;48.838;2.322;2022-12-17T14:09:58;32.97;;;21.50;;
819;SDS011;392;48.838;2.322;2022-12-17T14:12:27;29.27;;;21.08;;
819;SDS011;392;48.838;2.322;2022-12-17T14:14:55;30.88;;;21.65;;
819;SDS011;392;48.838;2.322;2022-12-17T14:17:26;31.55;;;21.42;;
819;SDS011;392;48.838;2.322;2022-12-17T14:19:56;34.60;;;22.50;;
819;SDS011;392;48.838;2.322;2022-12-17T14:22:32;35.88;;;22.83;;
819;SDS011;392;48.838;2.322;2022-12-17T14:25:04;32.63;;;22.25;;
819;SDS011;392;48.838;2.322;2022-12-17T14:27:39;33.92;;;21.70;;
819;SDS011;392;48.838;2.322;2022-12-17T14:30:21;32.35;;;21.23;;
819;SDS011;392;48.838;2.322;2022-12-17T14:32:51;30.80;;;21.52;;
819;SDS011;392;48.838;2.322;2022-12-17T14:35:21;30.85;;;21.65;;
819;SDS011;392;48.838;2.322;2022-12-17T14:37:52;31.08;;;21.33;;
819;SDS011;392;48.838;2.322;2022-12-17T14:40:21;29.15;;;19.65;;
819;SDS011;392;48.838;2.322;2022-12-17T14:42:50;31.20;;;20.27;;
819;SDS011;392;48.838;2.322;2022-12-17T14:45:23;29.73;;;21.17;;
819;SDS011;392;48.838;2.322;2022-12-17T14:47:54;27.10;;;18.95;;
819;SDS011;392;48.838;2.322;2022-12-17T14:50:26;27.55;;;19.60;;
819;SDS011;392;48.838;2.322;2022-12-17T14:52:58;29.92;;;20.52;;
819;SDS011;392;48.838;2.322;2022-12-17T14:55:32;29.02;;;19.90;;
819;SDS011;392;48.838;2.322;2022-12-17T14:58:06;26.27;;;19.13;;
819;SDS011;392;48.838;2.322;2022-12-17T15:00:44;28.08;;;19.40;;
819;SDS011;392;48.838;2.322;2022-12-17T15:03:16;27.38;;;19.27;;
819;SDS011;392;48.838;2.322;2022-12-17T15:05:49;25.08;;;18.42;;
819;SDS011;392;48.838;2.322;2022-12-17T15:08:21;25.50;;;18.75;;
819;SDS011;392;48.838;2.322;2022-12-17T15:10:49;26.67;;;19.20;;
819;SDS011;392;48.838;2.322;2022-12-17T15:13:16;29.45;;;19.55;;
819;SDS011;392;48.838;2.322;2022-12-17T15:15:44;27.65;;;18.30;;
819;SDS011;392;48.838;2.322;2022-12-17T15:18:11;27.65;;;18.55;;
819;SDS011;392;48.838;2.322;2022-12-17T15:20:39;26.23;;;17.80;;
819;SDS011;392;48.838;2.322;2022-12-17T15:23:08;25.42;;;18.38;;
819;SDS011;392;48.838;2.322;2022-12-17T15:25:42;28.10;;;17.90;;
819;SDS011;392;48.838;2.322;2022-12-17T15:28:10;24.20;;;17.45;;
819;SDS011;392;48.838;2.322;2022-12-17T15:30:40;25.88;;;17.65;;
819;SDS011;392;48.838;2.322;2022-12-17T15:33:09;25.83;;;17.85;;
819;SDS011;392;48.838;2.322;2022-12-17T15:35:37;27.60;;;23.25;;
819;SDS011;392;48.838;2.322;2022-12-17T15:38:05;26.52;;;17.52;;
819;SDS011;392;48.838;2.322;2022-12-17T15:40:34;21.13;;;16.00;;
819;SDS011;392;48.838;2.322;2022-12-17T15:43:04;23.52;;;17.85;;
819;SDS011;392;48.838;2.322;2022-12-17T15:45:37;26.02;;;17.05;;
819;SDS011;392;48.838;2.322;2022-12-17T15:48:06;22.60;;;16.20;;
819;SDS011;392;48.838;2.322;2022-12-17T15:50:36;25.17;;;16.38;;
819;SDS011;392;48.838;2.322;2022-12-17T15:53:03;22.70;;;16.30;;
819;SDS011;392;48.838;2.322;2022-12-17T15:55:32;21.02;;;15.55;;
819;SDS011;392;48.838;2.322;2022-12-17T15:57:59;24.63;;;17.10;;
819;SDS011;392;48.838;2.322;2022-12-17T16:00:31;24.88;;;17.35;;
819;SDS011;392;48.838;2.322;2022-12-17T16:02:59;24.30;;;17.27;;
819;SDS011;392;48.838;2.322;2022-12-17T16:05:26;23.88;;;16.73;;
819;SDS011;392;48.838;2.322;2022-12-17T16:07:53;25.23;;;17.05;;
819;SDS011;392;48.838;2.322;2022-12-17T16:10:26;26.25;;;18.60;;
819;SDS011;392;48.838;2.322;2022-12-17T16:12:53;28.52;;;20.00;;
819;SDS011;392;48.838;2.322;2022-12-17T16:15:21;26.58;;;19.00;;
819;SDS011;392;48.838;2.322;2022-12-17T16:17:52;25.80;;;20.02;;
819;SDS011;392;48.838;2.322;2022-12-17T16:20:19;25.10;;;18.88;;
819;SDS011;392;48.838;2.322;2022-12-17T16:22:48;25.20;;;19.77;;
819;SDS011;392;48.838;2.322;2022-12-17T16:25:15;27.80;;;20.90;;
819;SDS011;392;48.838;2.322;2022-12-17T16:27:43;25.55;;;19.60;;
819;SDS011;392;48.838;2.322;2022-12-17T16:30:11;24.02;;;18.35;;
819;SDS011;392;48.838;2.322;2022-12-17T16:32:39;23.33;;;18.83;;
819;SDS011;392;48.838;2.322;2022-12-17T16:35:08;20.23;;;15.40;;
819;SDS011;392;48.838;2.322;2022-12-17T16:37:36;21.45;;;17.50;;
819;SDS011;392;48.838;2.322;2022-12-17T16:40:04;21.08;;;16.92;;
819;SDS011;392;48.838;2.322;2022-12-17T16:42:35;22.23;;;16.25;;
819;SDS011;392;48.838;2.322;2022-12-17T16:45:06;22.67;;;18.42;;
819;SDS011;392;48.838;2.322;2022-12-17T16:47:34;24.35;;;19.33;;
819;SDS011;392;48.838;2.322;2022-12-17T16:50:04;25.05;;;20.33;;
819;SDS011;392;48.838;2.322;2022-12-17T16:52:33;26.90;;;21.25;;
819;SDS011;392;48.838;2.322;2022-12-17T16:55:01;24.52;;;20.80;;
819;SDS011;392;48.838;2.322;2022-12-17T16:57:30;24.27;;;20.25;;
819;SDS011;392;48.838;2.322;2022-12-17T16:59:58;25.40;;;19.90;;
819;SDS011;392;48.838;2.322;2022-12-17T17:02:25;21.73;;;17.17;;
819;SDS011;392;48.838;2.322;2022-12-17T17:04:52;21.52;;;17.20;;
819;SDS011;392;48.838;2.322;2022-12-17T17:07:20;21.77;;;17.42;;